createdAt,value
2022-12-16T00:01:18.853Z,27.25
2022-12-16T00:03:51.846Z,19.52
2022-12-16T00:06:19.983Z,18.52
2022-12-16T00:08:46.671Z,19.85
2022-12-16T00:11:13.839Z,18.15
2022-12-16T00:13:40.782Z,21.25
2022-12-16T00:16:12.572Z,20.33
2022-12-16T00:18:40.146Z,13.95
2022-12-16T00:21:07.861Z,19.55
2022-12-16T00:23:36.448Z,21.85
2022-12-16T00:26:05.819Z,15.57
2022-12-16T00:28:32.568Z,18.67
2022-12-16T00:30:59.708Z,14.93
2022-12-16T00:33:27.636Z,16.92
2022-12-16T00:35:54.936Z,14.40
2022-12-16T00:38:22.728Z,10.77
2022-12-16T00:40:50.043Z,19.73
2022-12-16T00:43:19.614Z,15.43
2022-12-16T00:45:47.045Z,17.08
2022-12-16T00:48:13.973Z,14.02
2022-12-16T00:50:40.652Z,19.35
2022-12-16T00:53:07.317Z,16.58
2022-12-16T00:55:35.306Z,18.92
2022-12-16T00:58:01.833Z,24.45
2022-12-16T01:00:28.379Z,18.42
2022-12-16T01:02:55.299Z,14.20
2022-12-16T01:05:26.819Z,16.50
2022-12-16T01:07:55.199Z,20.55
2022-12-16T01:10:23.255Z,15.55
2022-12-16T01:12:50.450Z,19.33
2022-12-16T01:15:18.819Z,16.13
2022-12-16T01:17:46.703Z,14.35
2022-12-16T01:20:15.856Z,17.13
2022-12-16T01:22:42.468Z,14.25
2022-12-16T01:25:12.960Z,14.70
2022-12-16T01:27:40.259Z,19.30
2022-12-16T01:30:09.044Z,17.52
2022-12-16T01:32:36.275Z,18.10
2022-12-16T01:35:02.954Z,16.35
2022-12-16T01:37:29.673Z,18.95
2022-12-16T01:39:56.434Z,14.40
2022-12-16T01:42:23.897Z,16.58
2022-12-16T01:44:52.252Z,15.30
2022-12-16T01:47:32.804Z,14.63
2022-12-16T01:50:04.341Z,16.27
2022-12-16T01:52:36.611Z,14.85
2022-12-16T01:55:22.217Z,14.30
2022-12-16T01:57:55.273Z,17.27
2022-12-16T02:00:22.230Z,18.52
2022-12-16T02:02:50.693Z,16.85
2022-12-16T02:05:20.755Z,19.33
2022-12-16T02:08:10.298Z,18.23
2022-12-16T02:10:42.674Z,15.25
2022-12-16T02:13:33.821Z,13.38
2022-12-16T02:16:18.702Z,15.55
2022-12-16T02:19:06.924Z,15.20
2022-12-16T02:22:07.075Z,16.80
2022-12-16T02:25:04.616Z,16.85
2022-12-16T02:27:52.239Z,19.17
2022-12-16T02:30:27.237Z,20.08
2022-12-16T02:33:35.337Z,18.27
2022-12-16T02:36:37.879Z,15.43
2022-12-16T02:39:18.946Z,12.73
2022-12-16T02:42:09.107Z,14.65
2022-12-16T02:44:55.250Z,14.93
2022-12-16T02:47:22.189Z,13.85
2022-12-16T02:49:51.739Z,18.05
2022-12-16T02:52:22.342Z,16.13
2022-12-16T02:54:53.115Z,17.83
2022-12-16T02:57:33.699Z,14.52
2022-12-16T03:00:14.726Z,17.40
2022-12-16T03:02:57.073Z,15.18
2022-12-16T03:05:38.669Z,13.75
2022-12-16T03:08:11.064Z,10.35
2022-12-16T03:10:45.999Z,18.55
2022-12-16T03:13:14.613Z,14.63
2022-12-16T03:15:41.562Z,14.02
2022-12-16T03:18:12.339Z,13.70
2022-12-16T03:20:55.625Z,16.58
2022-12-16T03:23:29.707Z,19.77
2022-12-16T03:26:05.046Z,14.38
2022-12-16T03:28:53.541Z,12.00
2022-12-16T03:31:40.456Z,14.30
2022-12-16T03:34:14.543Z,12.80
2022-12-16T03:36:45.266Z,12.10
2022-12-16T03:39:14.502Z,16.10
2022-12-16T03:41:44.005Z,14.50
2022-12-16T03:44:11.658Z,18.17
2022-12-16T03:46:41.064Z,12.52
2022-12-16T03:49:07.764Z,13.40
2022-12-16T03:51:34.467Z,14.27
2022-12-16T03:54:00.984Z,12.52
2022-12-16T03:56:27.639Z,13.15
2022-12-16T03:58:54.350Z,13.60
2022-12-16T04:01:21.290Z,11.95
2022-12-16T04:03:48.117Z,11.65
2022-12-16T04:06:18.996Z,13.25
2022-12-16T04:08:46.719Z,11.65
2022-12-16T04:11:33.486Z,14.15
2022-12-16T04:14:18.809Z,11.05
2022-12-16T04:17:04.738Z,13.80
2022-12-16T04:19:53.543Z,14.52
2022-12-16T04:22:55.642Z,15.43
2022-12-16T04:25:31.918Z,15.27
2022-12-16T04:28:00.887Z,12.40
2022-12-16T04:30:29.128Z,13.38
2022-12-16T04:33:21.056Z,13.48
2022-12-16T04:36:13.916Z,14.55
2022-12-16T04:38:59.272Z,13.10
2022-12-16T04:41:45.259Z,11.43
2022-12-16T04:44:47.544Z,12.13
2022-12-16T04:47:33.038Z,14.00
2022-12-16T04:50:18.192Z,12.40
2022-12-16T04:53:03.910Z,19.45
2022-12-16T04:55:49.538Z,12.63
2022-12-16T04:58:34.567Z,13.32
2022-12-16T05:01:20.123Z,17.58
2022-12-16T05:04:08.320Z,15.13
2022-12-16T05:06:53.672Z,12.57
2022-12-16T05:09:41.235Z,18.13
2022-12-16T05:12:26.397Z,13.65
2022-12-16T05:15:11.706Z,15.68
2022-12-16T05:17:56.834Z,20.13
2022-12-16T05:20:45.077Z,13.77
2022-12-16T05:23:36.350Z,11.52
2022-12-16T05:26:21.791Z,15.02
2022-12-16T05:29:09.662Z,11.85
2022-12-16T05:31:54.577Z,13.32
2022-12-16T05:34:40.433Z,16.02
2022-12-16T05:37:26.240Z,12.27
2022-12-16T05:40:11.714Z,15.57
2022-12-16T05:42:56.586Z,12.70
2022-12-16T05:45:41.862Z,15.85
2022-12-16T05:48:27.268Z,14.30
2022-12-16T05:51:12.220Z,16.45
2022-12-16T05:53:57.484Z,15.20
2022-12-16T05:56:42.616Z,17.38
2022-12-16T05:59:27.432Z,13.85
2022-12-16T06:02:13.139Z,11.23
2022-12-16T06:05:01.250Z,12.43
2022-12-16T06:07:46.357Z,13.88
2022-12-16T06:10:31.865Z,12.02
2022-12-16T06:13:16.877Z,10.95
2022-12-16T06:16:08.134Z,12.35
2022-12-16T06:18:54.117Z,16.35
2022-12-16T06:21:39.237Z,17.98
2022-12-16T06:24:24.967Z,15.48
2022-12-16T06:27:10.322Z,14.20
2022-12-16T06:29:55.441Z,15.38
2022-12-16T06:32:40.561Z,17.38
2022-12-16T06:35:36.526Z,18.83
2022-12-16T06:38:21.609Z,15.23
2022-12-16T06:41:06.695Z,18.50
2022-12-16T06:43:52.016Z,16.90
2022-12-16T06:46:37.167Z,15.35
2022-12-16T06:49:22.891Z,19.75
2022-12-16T06:52:10.886Z,14.18
2022-12-16T06:54:56.867Z,13.68
2022-12-16T06:57:42.672Z,17.63
2022-12-16T07:00:28.440Z,13.75
2022-12-16T07:03:13.829Z,16.08
2022-12-16T07:05:59.048Z,16.42
2022-12-16T07:08:44.105Z,17.70
2022-12-16T07:11:29.650Z,16.23
2022-12-16T07:14:15.092Z,15.43
2022-12-16T07:17:00.278Z,14.60
2022-12-16T07:19:59.030Z,18.95
2022-12-16T07:22:44.439Z,14.15
2022-12-16T07:25:29.703Z,15.88
2022-12-16T07:28:15.838Z,16.95
2022-12-16T07:31:01.892Z,17.23
2022-12-16T07:33:47.159Z,15.07
2022-12-16T07:36:34.332Z,14.30
2022-12-16T07:39:23.889Z,13.13
2022-12-16T07:42:09.156Z,16.13
2022-12-16T07:44:54.446Z,16.17
2022-12-16T07:47:39.519Z,17.15
2022-12-16T07:50:27.604Z,19.75
2022-12-16T07:53:14.509Z,15.23
2022-12-16T07:55:59.972Z,18.85
2022-12-16T07:58:45.286Z,23.42
2022-12-16T08:01:30.960Z,23.85
2022-12-16T08:04:16.134Z,17.02
2022-12-16T08:07:01.567Z,31.35
2022-12-16T08:10:03.458Z,19.05
2022-12-16T08:12:48.403Z,18.08
2022-12-16T08:15:33.407Z,20.63
2022-12-16T08:18:18.885Z,18.77
2022-12-16T08:21:03.949Z,17.58
2022-12-16T08:23:49.149Z,22.08
2022-12-16T08:26:34.474Z,15.27
2022-12-16T08:29:42.989Z,17.83
2022-12-16T08:32:24.729Z,19.48
2022-12-16T08:35:09.838Z,16.35
2022-12-16T08:37:54.678Z,26.30
2022-12-16T08:40:40.928Z,22.48
2022-12-16T08:43:25.937Z,19.98
2022-12-16T08:46:13.078Z,20.98
2022-12-16T08:48:58.839Z,19.42
2022-12-16T08:51:43.790Z,20.75
2022-12-16T08:54:42.916Z,25.80
2022-12-16T08:57:27.984Z,20.80
2022-12-16T09:00:12.818Z,19.58
2022-12-16T09:03:08.846Z,23.30
2022-12-16T09:05:54.370Z,25.30
2022-12-16T09:08:39.471Z,24.15
2022-12-16T09:11:24.664Z,24.35
2022-12-16T09:14:09.875Z,27.13
2022-12-16T09:16:55.045Z,24.73
2022-12-16T09:19:39.970Z,24.40
2022-12-16T09:22:25.076Z,25.63
2022-12-16T09:25:10.375Z,27.70
2022-12-16T09:27:55.568Z,25.17
2022-12-16T09:30:41.369Z,28.58
2022-12-16T09:33:26.666Z,23.33
2022-12-16T09:36:11.598Z,26.55
2022-12-16T09:38:56.818Z,24.88
2022-12-16T09:41:46.849Z,24.65
2022-12-16T09:44:44.859Z,23.75
2022-12-16T09:48:03.190Z,27.58
2022-12-16T09:50:51.799Z,24.77
2022-12-16T09:53:40.540Z,26.23
2022-12-16T09:56:37.796Z,24.60
2022-12-16T09:59:33.920Z,27.20
2022-12-16T10:02:19.909Z,26.45
2022-12-16T10:05:10.693Z,27.58
2022-12-16T10:08:04.901Z,24.15
2022-12-16T10:10:59.122Z,29.90
2022-12-16T10:13:53.241Z,32.83
2022-12-16T10:17:07.887Z,22.33
2022-12-16T10:20:15.869Z,24.33
2022-12-16T10:23:12.397Z,24.25
2022-12-16T10:26:11.365Z,26.48
2022-12-16T10:29:11.632Z,26.75
2022-12-16T10:31:56.897Z,33.17
2022-12-16T10:34:48.054Z,29.10
2022-12-16T10:37:41.141Z,30.95
2022-12-16T10:40:34.991Z,36.13
2022-12-16T10:43:24.184Z,25.38
2022-12-16T10:46:12.914Z,28.70
2022-12-16T10:48:58.446Z,27.38
2022-12-16T10:51:48.634Z,29.30
2022-12-16T10:54:40.015Z,24.88
2022-12-16T10:57:37.821Z,28.83
2022-12-16T11:00:58.316Z,27.40
2022-12-16T11:03:50.353Z,23.10
2022-12-16T11:06:49.436Z,23.70
2022-12-16T11:09:47.201Z,27.63
2022-12-16T11:12:55.593Z,26.48
2022-12-16T11:15:45.813Z,25.70
2022-12-16T11:18:41.448Z,26.65
2022-12-16T11:21:39.390Z,23.13
2022-12-16T11:24:32.533Z,29.02
2022-12-16T11:27:23.894Z,24.95
2022-12-16T11:30:11.896Z,25.25
2022-12-16T11:33:00.733Z,29.48
2022-12-16T11:35:49.373Z,27.70
2022-12-16T11:38:43.566Z,23.13
2022-12-16T11:41:46.883Z,26.50
2022-12-16T11:44:45.373Z,26.40
2022-12-16T11:48:06.278Z,24.98
2022-12-16T11:50:55.677Z,26.98
2022-12-16T11:54:07.278Z,27.10
2022-12-16T11:56:59.326Z,32.75
2022-12-16T11:59:52.989Z,29.23
2022-12-16T12:03:38.508Z,28.42
2022-12-16T12:06:43.859Z,23.08
2022-12-16T12:09:38.480Z,33.58
2022-12-16T12:12:42.946Z,29.23
2022-12-16T12:15:53.903Z,27.77
2022-12-16T12:19:11.798Z,29.33
2022-12-16T12:22:23.531Z,27.02
2022-12-16T12:25:26.442Z,33.70
2022-12-16T12:28:23.834Z,24.05
2022-12-16T12:31:16.918Z,26.13
2022-12-16T12:34:22.018Z,29.00
2022-12-16T12:40:47.203Z,24.95
2022-12-16T12:44:16.094Z,23.40
2022-12-16T12:47:24.133Z,26.05
2022-12-16T12:50:22.318Z,29.27
2022-12-16T12:53:25.810Z,31.52
2022-12-16T12:56:23.648Z,24.95
2022-12-16T12:59:13.469Z,28.90
2022-12-16T13:02:05.101Z,25.33
2022-12-16T13:04:52.569Z,28.35
2022-12-16T13:07:39.402Z,23.90
2022-12-16T13:10:33.899Z,23.30
2022-12-16T13:13:49.072Z,27.60
2022-12-16T13:17:05.176Z,27.52
2022-12-16T13:19:50.762Z,29.00
2022-12-16T13:22:50.608Z,30.10
2022-12-16T13:25:51.450Z,26.63
2022-12-16T13:28:45.397Z,32.45
2022-12-16T13:31:34.684Z,27.35
2022-12-16T13:34:42.488Z,31.60
2022-12-16T13:37:47.888Z,26.40
2022-12-16T13:40:42.421Z,26.73
2022-12-16T13:44:06.170Z,24.70
2022-12-16T13:47:29.167Z,32.20
2022-12-16T13:50:14.061Z,28.00
2022-12-16T13:52:59.070Z,25.35
2022-12-16T13:55:52.244Z,26.33
2022-12-16T13:59:00.644Z,26.77
2022-12-16T14:01:55.685Z,24.13
2022-12-16T14:05:12.825Z,25.30
2022-12-16T14:08:02.095Z,25.67
2022-12-16T14:10:51.911Z,27.30
2022-12-16T14:13:57.534Z,29.00
2022-12-16T14:16:57.466Z,30.13
2022-12-16T14:20:20.658Z,24.15
2022-12-16T14:23:39.111Z,36.67
2022-12-16T14:26:22.301Z,32.85
2022-12-16T14:29:10.484Z,35.60
2022-12-16T14:32:08.959Z,36.00
2022-12-16T14:34:55.371Z,47.28
2022-12-16T14:37:40.572Z,32.15
2022-12-16T14:40:46.753Z,42.58
2022-12-16T14:43:36.685Z,34.45
2022-12-16T14:46:22.023Z,31.50
2022-12-16T14:49:08.833Z,32.72
2022-12-16T14:52:05.993Z,33.45
2022-12-16T14:54:57.344Z,34.55
2022-12-16T14:57:45.093Z,33.92
2022-12-16T15:00:53.400Z,31.60
2022-12-16T15:03:49.515Z,33.38
2022-12-16T15:06:42.858Z,33.28
2022-12-16T15:09:36.313Z,41.08
2022-12-16T15:12:21.746Z,32.78
2022-12-16T15:15:07.614Z,40.67
2022-12-16T15:18:03.298Z,37.70
2022-12-16T15:20:52.128Z,37.17
2022-12-16T15:24:00.393Z,37.13
2022-12-16T15:26:48.636Z,34.40
2022-12-16T15:29:58.966Z,37.10
2022-12-16T15:32:44.126Z,33.50
2022-12-16T15:35:30.210Z,36.90
2022-12-16T15:38:15.253Z,36.67
2022-12-16T15:41:00.221Z,41.92
2022-12-16T15:43:50.876Z,38.33
2022-12-16T15:46:45.896Z,33.17
2022-12-16T15:50:03.873Z,30.00
2022-12-16T15:53:01.899Z,32.33
2022-12-16T15:55:59.488Z,37.92
2022-12-16T15:58:51.587Z,38.40
2022-12-16T16:01:43.849Z,43.47
2022-12-16T16:04:45.714Z,38.08
2022-12-16T16:07:38.317Z,31.42
2022-12-16T16:10:43.441Z,33.53
2022-12-16T16:13:28.781Z,32.15
2022-12-16T16:16:14.448Z,38.10
2022-12-16T16:19:01.069Z,38.80
2022-12-16T16:21:47.673Z,36.67
2022-12-16T16:24:33.459Z,38.08
2022-12-16T16:27:20.728Z,42.05
2022-12-16T16:30:06.166Z,40.65
2022-12-16T16:32:51.819Z,37.45
2022-12-16T16:35:37.342Z,46.00
2022-12-16T16:38:22.724Z,39.58
2022-12-16T16:41:08.114Z,36.75
2022-12-16T16:43:53.380Z,39.67
2022-12-16T16:46:38.656Z,39.45
2022-12-16T16:49:28.087Z,39.88
2022-12-16T16:52:13.822Z,37.45
2022-12-16T16:54:59.049Z,36.10
2022-12-16T16:57:49.552Z,47.47
2022-12-16T17:00:35.344Z,41.33
2022-12-16T17:03:20.886Z,40.72
2022-12-16T17:06:06.434Z,39.45
2022-12-16T17:08:51.728Z,45.17
2022-12-16T17:11:39.358Z,42.55
2022-12-16T17:14:28.530Z,45.38
2022-12-16T17:17:14.439Z,39.35
2022-12-16T17:19:59.704Z,39.40
2022-12-16T17:22:45.217Z,35.42
2022-12-16T17:25:32.405Z,42.30
2022-12-16T17:28:18.652Z,34.55
2022-12-16T17:31:03.934Z,33.80
2022-12-16T17:33:48.872Z,35.60
2022-12-16T17:36:36.438Z,36.28
2022-12-16T17:39:23.695Z,42.35
2022-12-16T17:42:09.034Z,40.50
2022-12-16T17:44:54.366Z,42.35
2022-12-16T17:47:41.815Z,43.00
2022-12-16T17:50:27.566Z,46.85
2022-12-16T17:53:37.193Z,34.67
2022-12-16T17:56:24.192Z,40.35
2022-12-16T17:59:11.124Z,36.83
2022-12-16T18:02:16.109Z,40.72
2022-12-16T18:05:01.448Z,48.70
2022-12-16T18:07:46.642Z,34.92
2022-12-16T18:10:31.668Z,35.15
2022-12-16T18:13:17.009Z,35.88
2022-12-16T18:16:02.396Z,39.03
2022-12-16T18:18:47.485Z,39.05
2022-12-16T18:21:33.185Z,46.25
2022-12-16T18:24:18.141Z,33.55
2022-12-16T18:27:03.480Z,40.83
2022-12-16T18:29:48.418Z,42.88
2022-12-16T18:32:35.377Z,39.55
2022-12-16T18:35:21.092Z,42.60
2022-12-16T18:38:06.272Z,38.78
2022-12-16T18:40:52.020Z,39.50
2022-12-16T18:43:37.443Z,37.25
2022-12-16T18:46:23.137Z,46.65
2022-12-16T18:49:09.470Z,38.58
2022-12-16T18:51:54.898Z,38.08
2022-12-16T18:54:57.521Z,37.47
2022-12-16T18:57:43.218Z,45.72
2022-12-16T19:00:28.998Z,39.15
2022-12-16T19:03:14.688Z,37.08
2022-12-16T19:06:00.123Z,45.30
2022-12-16T19:08:47.790Z,43.63
2022-12-16T19:11:32.868Z,38.83
2022-12-16T19:14:18.174Z,42.15
2022-12-16T19:17:04.071Z,35.08
2022-12-16T19:19:49.009Z,38.45
2022-12-16T19:22:34.103Z,43.65
2022-12-16T19:25:19.374Z,37.85
2022-12-16T19:28:04.727Z,38.63
2022-12-16T19:30:50.237Z,35.28
2022-12-16T19:33:35.662Z,42.20
2022-12-16T19:36:21.119Z,37.42
2022-12-16T19:39:06.217Z,41.85
2022-12-16T19:41:51.185Z,40.08
2022-12-16T19:44:36.883Z,38.97
2022-12-16T19:47:22.416Z,40.03
2022-12-16T19:50:08.059Z,44.45
2022-12-16T19:52:56.111Z,38.17
2022-12-16T19:55:41.280Z,43.85
2022-12-16T19:58:26.647Z,40.75
2022-12-16T20:01:11.919Z,36.35
2022-12-16T20:03:57.287Z,43.88
2022-12-16T20:06:42.281Z,36.78
2022-12-16T20:09:27.461Z,41.97
2022-12-16T20:12:12.704Z,35.67
2022-12-16T20:14:57.765Z,43.47
2022-12-16T20:17:43.044Z,38.00
2022-12-16T20:20:28.417Z,40.65
2022-12-16T20:23:14.411Z,44.38
2022-12-16T20:25:59.930Z,41.05
2022-12-16T20:28:44.841Z,41.17
2022-12-16T20:31:30.173Z,40.95
2022-12-16T20:34:15.785Z,40.35
2022-12-16T20:37:02.724Z,41.33
2022-12-16T20:39:56.521Z,42.30
2022-12-16T20:42:44.210Z,42.40
2022-12-16T20:45:30.278Z,37.90
2022-12-16T20:48:15.764Z,47.88
2022-12-16T20:51:01.132Z,38.95
2022-12-16T20:53:47.133Z,44.80
2022-12-16T20:56:31.991Z,33.30
2022-12-16T20:59:17.453Z,42.88
2022-12-16T21:02:22.608Z,42.08
2022-12-16T21:05:07.690Z,37.65
2022-12-16T21:07:53.645Z,43.38
2022-12-16T21:10:38.677Z,38.65
2022-12-16T21:13:35.525Z,38.05
2022-12-16T21:16:23.850Z,36.75
2022-12-16T21:19:09.160Z,38.78
2022-12-16T21:21:54.826Z,34.92
2022-12-16T21:24:42.063Z,37.33
2022-12-16T21:27:27.391Z,42.75
2022-12-16T21:30:12.541Z,40.85
2022-12-16T21:32:58.288Z,38.47
2022-12-16T21:35:43.747Z,38.22
2022-12-16T21:38:30.625Z,43.13
2022-12-16T21:41:16.611Z,37.10
2022-12-16T21:44:02.043Z,35.08
2022-12-16T21:46:47.390Z,41.67
2022-12-16T21:49:32.294Z,42.70
2022-12-16T21:52:17.240Z,43.38
2022-12-16T21:55:02.322Z,42.88
2022-12-16T21:57:47.526Z,36.42
2022-12-16T22:00:33.305Z,42.03
2022-12-16T22:03:18.513Z,42.95
2022-12-16T22:06:03.566Z,45.05
2022-12-16T22:08:49.331Z,46.38
2022-12-16T22:11:34.411Z,43.53
2022-12-16T22:14:19.798Z,41.05
2022-12-16T22:17:06.047Z,44.00
2022-12-16T22:19:51.763Z,39.97
2022-12-16T22:22:37.007Z,42.63
2022-12-16T22:25:23.092Z,40.85
2022-12-16T22:28:08.669Z,46.55
2022-12-16T22:34:00.201Z,43.17
2022-12-16T22:36:45.434Z,42.53
2022-12-16T22:39:30.385Z,36.17
2022-12-16T22:42:15.851Z,43.88
2022-12-16T22:45:01.120Z,42.90
2022-12-16T22:47:46.575Z,45.72
2022-12-16T22:50:32.192Z,43.33
2022-12-16T22:53:17.783Z,48.25
2022-12-16T22:56:09.586Z,43.65
2022-12-16T22:58:55.029Z,47.65
2022-12-16T23:01:42.306Z,44.90
2022-12-16T23:04:28.132Z,46.33
2022-12-16T23:07:13.586Z,45.90
2022-12-16T23:09:59.239Z,46.17
2022-12-16T23:12:44.149Z,44.97
2022-12-16T23:15:30.416Z,46.08
2022-12-16T23:18:15.943Z,47.53
2022-12-16T23:21:09.803Z,49.03
2022-12-16T23:23:57.009Z,45.92
2022-12-16T23:27:02.601Z,43.90
2022-12-16T23:29:47.908Z,42.40
2022-12-16T23:32:31.267Z,37.85
2022-12-16T23:35:23.718Z,48.03
2022-12-16T23:38:08.724Z,44.85
2022-12-16T23:40:56.137Z,47.10
2022-12-16T23:43:42.860Z,41.22
2022-12-16T23:46:28.425Z,51.08
2022-12-16T23:49:13.770Z,40.28
2022-12-16T23:51:59.324Z,38.25
2022-12-16T23:54:44.569Z,46.20
2022-12-16T23:57:29.738Z,38.33
